sensor_id;sensor_type;location;lat;lon;timestamp;temperature;humidity
17659;DHT22;8948;51.534;8.262;2023-06-26T00:00:28;24.20;51.90
17659;DHT22;8948;51.534;8.262;2023-06-26T00:05:29;24.10;52.00
17659;DHT22;8948;51.534;8.262;2023-06-26T00:10:30;24.10;51.70
17659;DHT22;8948;51.534;8.262;2023-06-26T00:15:31;24.10;51.40
17659;DHT22;8948;51.534;8.262;2023-06-26T00:20:31;24.00;51.40
17659;DHT22;8948;51.534;8.262;2023-06-26T00:25:34;24.00;51.30
17659;DHT22;8948;51.534;8.262;2023-06-26T00:30:34;23.90;51.40
17659;DHT22;8948;51.534;8.262;2023-06-26T00:35:35;23.90;51.30
17659;DHT22;8948;51.534;8.262;2023-06-26T00:40:36;23.80;51.30
17659;DHT22;8948;51.534;8.262;2023-06-26T00:45:36;23.80;50.90
17659;DHT22;8948;51.534;8.262;2023-06-26T00:50:37;23.80;51.20
17659;DHT22;8948;51.534;8.262;2023-06-26T00:55:37;23.70;51.10
17659;DHT22;8948;51.534;8.262;2023-06-26T01:00:38;23.70;50.90
17659;DHT22;8948;51.534;8.262;2023-06-26T01:05:39;23.70;51.30
17659;DHT22;8948;51.534;8.262;2023-06-26T01:10:40;23.60;51.50
17659;DHT22;8948;51.534;8.262;2023-06-26T01:15:40;23.50;51.30
17659;DHT22;8948;51.534;8.262;2023-06-26T01:20:42;23.50;50.80
17659;DHT22;8948;51.534;8.262;2023-06-26T01:31:09;23.30;51.00
17659;DHT22;8948;51.534;8.262;2023-06-26T01:36:10;23.20;51.00
17659;DHT22;8948;51.534;8.262;2023-06-26T01:41:11;23.10;51.50
17659;DHT22;8948;51.534;8.262;2023-06-26T01:46:39;23.00;51.30
17659;DHT22;8948;51.534;8.262;2023-06-26T01:51:44;23.00;51.50
17659;DHT22;8948;51.534;8.262;2023-06-26T01:56:49;22.90;51.30
17659;DHT22;8948;51.534;8.262;2023-06-26T02:01:50;22.90;51.00
17659;DHT22;8948;51.534;8.262;2023-06-26T02:06:52;22.90;51.00
17659;DHT22;8948;51.534;8.262;2023-06-26T02:11:53;22.90;50.80
17659;DHT22;8948;51.534;8.262;2023-06-26T02:16:53;22.90;51.00
17659;DHT22;8948;51.534;8.262;2023-06-26T02:21:54;22.80;51.10
17659;DHT22;8948;51.534;8.262;2023-06-26T02:26:55;22.80;50.90
17659;DHT22;8948;51.534;8.262;2023-06-26T02:31:55;22.80;50.90
17659;DHT22;8948;51.534;8.262;2023-06-26T02:36:56;22.80;51.00
17659;DHT22;8948;51.534;8.262;2023-06-26T02:41:58;22.70;51.30
17659;DHT22;8948;51.534;8.262;2023-06-26T02:46:59;22.70;51.30
17659;DHT22;8948;51.534;8.262;2023-06-26T02:51:59;22.70;51.40
17659;DHT22;8948;51.534;8.262;2023-06-26T02:57:00;22.70;50.90
17659;DHT22;8948;51.534;8.262;2023-06-26T03:02:00;22.70;51.40
17659;DHT22;8948;51.534;8.262;2023-06-26T03:07:02;22.60;51.40
17659;DHT22;8948;51.534;8.262;2023-06-26T03:12:02;22.60;51.20
17659;DHT22;8948;51.534;8.262;2023-06-26T03:17:03;22.60;51.30
17659;DHT22;8948;51.534;8.262;2023-06-26T03:22:04;22.60;51.00
17659;DHT22;8948;51.534;8.262;2023-06-26T03:27:05;22.60;51.70
17659;DHT22;8948;51.534;8.262;2023-06-26T03:32:06;22.50;51.90
17659;DHT22;8948;51.534;8.262;2023-06-26T03:37:06;22.50;52.40
17659;DHT22;8948;51.534;8.262;2023-06-26T03:42:07;22.50;51.60
17659;DHT22;8948;51.534;8.262;2023-06-26T03:47:07;22.40;51.50
17659;DHT22;8948;51.534;8.262;2023-06-26T03:52:08;22.50;51.90
17659;DHT22;8948;51.534;8.262;2023-06-26T03:57:09;22.60;53.50
17659;DHT22;8948;51.534;8.262;2023-06-26T04:02:09;22.70;51.80
17659;DHT22;8948;51.534;8.262;2023-06-26T04:07:10;22.70;53.10
17659;DHT22;8948;51.534;8.262;2023-06-26T04:12:11;22.80;51.90
17659;DHT22;8948;51.534;8.262;2023-06-26T04:17:11;22.80;52.70
17659;DHT22;8948;51.534;8.262;2023-06-26T04:22:12;22.80;53.00
17659;DHT22;8948;51.534;8.262;2023-06-26T04:27:12;22.80;53.00
17659;DHT22;8948;51.534;8.262;2023-06-26T04:32:14;22.90;52.80
17659;DHT22;8948;51.534;8.262;2023-06-26T04:37:14;23.00;52.30
17659;DHT22;8948;51.534;8.262;2023-06-26T04:42:18;23.10;52.20
17659;DHT22;8948;51.534;8.262;2023-06-26T04:47:21;23.20;52.50
17659;DHT22;8948;51.534;8.262;2023-06-26T04:52:22;23.20;51.30
17659;DHT22;8948;51.534;8.262;2023-06-26T04:57:22;23.30;52.10
17659;DHT22;8948;51.534;8.262;2023-06-26T05:02:23;23.40;52.10
17659;DHT22;8948;51.534;8.262;2023-06-26T05:07:23;23.40;52.80
17659;DHT22;8948;51.534;8.262;2023-06-26T05:12:24;23.50;52.70
17659;DHT22;8948;51.534;8.262;2023-06-26T05:17:25;23.50;52.10
17659;DHT22;8948;51.534;8.262;2023-06-26T05:22:26;23.70;51.10
17659;DHT22;8948;51.534;8.262;2023-06-26T05:27:27;23.80;51.80
17659;DHT22;8948;51.534;8.262;2023-06-26T05:32:28;23.90;51.60
17659;DHT22;8948;51.534;8.262;2023-06-26T05:37:29;23.90;51.20
17659;DHT22;8948;51.534;8.262;2023-06-26T05:42:31;23.90;52.20
17659;DHT22;8948;51.534;8.262;2023-06-26T05:47:31;24.00;51.60
17659;DHT22;8948;51.534;8.262;2023-06-26T05:52:32;24.20;51.30
17659;DHT22;8948;51.534;8.262;2023-06-26T05:57:34;24.20;50.60
17659;DHT22;8948;51.534;8.262;2023-06-26T06:02:36;24.10;51.00
17659;DHT22;8948;51.534;8.262;2023-06-26T06:07:36;24.20;51.30
17659;DHT22;8948;51.534;8.262;2023-06-26T06:12:37;24.20;51.30
17659;DHT22;8948;51.534;8.262;2023-06-26T06:17:37;24.20;52.40
17659;DHT22;8948;51.534;8.262;2023-06-26T06:22:38;24.20;51.90
17659;DHT22;8948;51.534;8.262;2023-06-26T06:27:38;24.30;51.80
17659;DHT22;8948;51.534;8.262;2023-06-26T06:32:39;24.40;51.40
17659;DHT22;8948;51.534;8.262;2023-06-26T06:37:40;24.50;52.50
17659;DHT22;8948;51.534;8.262;2023-06-26T06:42:40;24.50;52.10
17659;DHT22;8948;51.534;8.262;2023-06-26T06:47:41;24.60;51.90
17659;DHT22;8948;51.534;8.262;2023-06-26T06:52:43;24.60;52.40
17659;DHT22;8948;51.534;8.262;2023-06-26T06:57:43;24.60;53.00
17659;DHT22;8948;51.534;8.262;2023-06-26T07:02:45;24.60;52.80
17659;DHT22;8948;51.534;8.262;2023-06-26T07:07:45;24.70;53.20
17659;DHT22;8948;51.534;8.262;2023-06-26T07:12:46;25.00;53.30
17659;DHT22;8948;51.534;8.262;2023-06-26T07:17:47;24.70;53.50
17659;DHT22;8948;51.534;8.262;2023-06-26T07:22:48;24.80;54.20
17659;DHT22;8948;51.534;8.262;2023-06-26T07:27:48;25.10;54.20
17659;DHT22;8948;51.534;8.262;2023-06-26T07:32:49;24.90;53.70
17659;DHT22;8948;51.534;8.262;2023-06-26T07:37:50;24.70;54.80
17659;DHT22;8948;51.534;8.262;2023-06-26T07:42:50;24.50;55.30
17659;DHT22;8948;51.534;8.262;2023-06-26T07:47:51;24.70;55.30
17659;DHT22;8948;51.534;8.262;2023-06-26T07:52:51;24.80;54.80
17659;DHT22;8948;51.534;8.262;2023-06-26T07:57:53;24.50;55.40
17659;DHT22;8948;51.534;8.262;2023-06-26T08:02:55;24.10;57.20
17659;DHT22;8948;51.534;8.262;2023-06-26T08:07:56;23.80;57.60
17659;DHT22;8948;51.534;8.262;2023-06-26T08:12:56;24.20;58.30
17659;DHT22;8948;51.534;8.262;2023-06-26T08:17:57;24.70;56.10
17659;DHT22;8948;51.534;8.262;2023-06-26T08:22:57;25.00;55.50
17659;DHT22;8948;51.534;8.262;2023-06-26T08:27:58;24.70;56.60
17659;DHT22;8948;51.534;8.262;2023-06-26T08:32:59;24.20;56.60
17659;DHT22;8948;51.534;8.262;2023-06-26T08:38:00;24.60;56.30
17659;DHT22;8948;51.534;8.262;2023-06-26T08:43:00;24.40;56.80
17659;DHT22;8948;51.534;8.262;2023-06-26T08:48:01;24.10;57.20
17659;DHT22;8948;51.534;8.262;2023-06-26T08:53:20;24.20;57.50
17659;DHT22;8948;51.534;8.262;2023-06-26T08:58:21;24.50;56.70
17659;DHT22;8948;51.534;8.262;2023-06-26T09:03:23;25.10;55.30
17659;DHT22;8948;51.534;8.262;2023-06-26T09:08:25;25.60;54.40
17659;DHT22;8948;51.534;8.262;2023-06-26T09:13:29;25.80;54.10
17659;DHT22;8948;51.534;8.262;2023-06-26T09:18:32;25.70;54.00
17659;DHT22;8948;51.534;8.262;2023-06-26T09:23:34;25.90;54.30
17659;DHT22;8948;51.534;8.262;2023-06-26T09:28:35;26.20;53.10
17659;DHT22;8948;51.534;8.262;2023-06-26T09:33:37;25.60;54.00
17659;DHT22;8948;51.534;8.262;2023-06-26T09:38:38;25.10;55.60
17659;DHT22;8948;51.534;8.262;2023-06-26T09:43:51;25.30;54.60
17659;DHT22;8948;51.534;8.262;2023-06-26T09:49:02;25.70;55.90
17659;DHT22;8948;51.534;8.262;2023-06-26T09:54:05;25.70;54.30
17659;DHT22;8948;51.534;8.262;2023-06-26T09:59:06;25.00;55.90
17659;DHT22;8948;51.534;8.262;2023-06-26T10:04:07;24.60;57.10
17659;DHT22;8948;51.534;8.262;2023-06-26T10:09:08;24.50;57.00
17659;DHT22;8948;51.534;8.262;2023-06-26T10:14:11;24.60;56.50
17659;DHT22;8948;51.534;8.262;2023-06-26T10:19:13;24.80;56.90
17659;DHT22;8948;51.534;8.262;2023-06-26T10:24:14;24.70;57.60
17659;DHT22;8948;51.534;8.262;2023-06-26T10:29:16;24.60;56.30
17659;DHT22;8948;51.534;8.262;2023-06-26T10:34:18;24.70;56.10
17659;DHT22;8948;51.534;8.262;2023-06-26T10:39:18;24.70;55.80
17659;DHT22;8948;51.534;8.262;2023-06-26T10:44:19;25.80;54.30
17659;DHT22;8948;51.534;8.262;2023-06-26T10:49:34;25.80;54.30
17659;DHT22;8948;51.534;8.262;2023-06-26T10:54:35;25.30;54.20
17659;DHT22;8948;51.534;8.262;2023-06-26T10:59:39;25.70;54.40
17659;DHT22;8948;51.534;8.262;2023-06-26T11:04:46;25.40;54.40
17659;DHT22;8948;51.534;8.262;2023-06-26T11:10:16;25.40;53.30
17659;DHT22;8948;51.534;8.262;2023-06-26T11:15:19;26.20;52.80
17659;DHT22;8948;51.534;8.262;2023-06-26T11:20:19;26.50;52.30
17659;DHT22;8948;51.534;8.262;2023-06-26T11:25:20;26.70;54.10
17659;DHT22;8948;51.534;8.262;2023-06-26T11:30:25;26.40;51.40
17659;DHT22;8948;51.534;8.262;2023-06-26T11:35:26;26.00;50.20
17659;DHT22;8948;51.534;8.262;2023-06-26T11:40:34;25.70;50.60
17659;DHT22;8948;51.534;8.262;2023-06-26T11:45:35;25.60;50.20
17659;DHT22;8948;51.534;8.262;2023-06-26T11:50:37;26.40;50.10
17659;DHT22;8948;51.534;8.262;2023-06-26T11:55:42;26.70;49.40
17659;DHT22;8948;51.534;8.262;2023-06-26T12:00:43;26.10;49.00
17659;DHT22;8948;51.534;8.262;2023-06-26T12:05:44;27.00;47.40
17659;DHT22;8948;51.534;8.262;2023-06-26T12:10:45;26.80;45.10
17659;DHT22;8948;51.534;8.262;2023-06-26T12:15:46;26.90;46.40
17659;DHT22;8948;51.534;8.262;2023-06-26T12:20:46;26.60;47.30
17659;DHT22;8948;51.534;8.262;2023-06-26T12:25:47;27.20;46.10
17659;DHT22;8948;51.534;8.262;2023-06-26T12:31:13;27.80;44.40
17659;DHT22;8948;51.534;8.262;2023-06-26T12:36:14;27.80;42.90
17659;DHT22;8948;51.534;8.262;2023-06-26T12:41:15;28.10;43.10
17659;DHT22;8948;51.534;8.262;2023-06-26T12:46:16;28.10;43.10
17659;DHT22;8948;51.534;8.262;2023-06-26T12:51:17;27.90;43.70
17659;DHT22;8948;51.534;8.262;2023-06-26T12:56:18;27.30;43.60
17659;DHT22;8948;51.534;8.262;2023-06-26T13:01:20;26.60;45.10
17659;DHT22;8948;51.534;8.262;2023-06-26T13:06:20;26.10;47.50
17659;DHT22;8948;51.534;8.262;2023-06-26T13:11:21;25.80;49.20
17659;DHT22;8948;51.534;8.262;2023-06-26T13:16:23;25.50;50.30
17659;DHT22;8948;51.534;8.262;2023-06-26T13:21:23;25.30;49.50
17659;DHT22;8948;51.534;8.262;2023-06-26T13:26:24;25.20;50.40
17659;DHT22;8948;51.534;8.262;2023-06-26T13:31:26;25.10;49.10
17659;DHT22;8948;51.534;8.262;2023-06-26T13:36:27;25.10;49.70
17659;DHT22;8948;51.534;8.262;2023-06-26T13:41:27;25.90;49.50
17659;DHT22;8948;51.534;8.262;2023-06-26T13:46:29;26.50;45.70
17659;DHT22;8948;51.534;8.262;2023-06-26T13:51:29;26.80;44.50
17659;DHT22;8948;51.534;8.262;2023-06-26T13:56:30;26.60;45.50
17659;DHT22;8948;51.534;8.262;2023-06-26T14:01:31;26.70;45.20
17659;DHT22;8948;51.534;8.262;2023-06-26T14:06:31;27.20;43.80
17659;DHT22;8948;51.534;8.262;2023-06-26T14:11:32;26.80;44.70
17659;DHT22;8948;51.534;8.262;2023-06-26T14:16:34;26.50;44.70
17659;DHT22;8948;51.534;8.262;2023-06-26T14:21:34;26.80;42.10
17659;DHT22;8948;51.534;8.262;2023-06-26T14:26:35;27.40;40.60
17659;DHT22;8948;51.534;8.262;2023-06-26T14:31:37;27.70;40.00
17659;DHT22;8948;51.534;8.262;2023-06-26T14:36:37;27.90;39.60
17659;DHT22;8948;51.534;8.262;2023-06-26T14:41:38;28.00;38.80
17659;DHT22;8948;51.534;8.262;2023-06-26T14:46:39;27.90;39.70
17659;DHT22;8948;51.534;8.262;2023-06-26T14:51:39;27.70;39.10
17659;DHT22;8948;51.534;8.262;2023-06-26T14:56:40;27.90;38.60
17659;DHT22;8948;51.534;8.262;2023-06-26T15:01:43;27.70;38.20
17659;DHT22;8948;51.534;8.262;2023-06-26T15:06:44;27.30;38.30
17659;DHT22;8948;51.534;8.262;2023-06-26T15:11:45;27.10;38.80
17659;DHT22;8948;51.534;8.262;2023-06-26T15:16:45;27.00;39.00
17659;DHT22;8948;51.534;8.262;2023-06-26T15:21:46;26.80;39.50
17659;DHT22;8948;51.534;8.262;2023-06-26T15:26:46;26.80;40.00
17659;DHT22;8948;51.534;8.262;2023-06-26T15:31:47;26.50;40.80
17659;DHT22;8948;51.534;8.262;2023-06-26T15:36:48;26.10;40.40
17659;DHT22;8948;51.534;8.262;2023-06-26T15:41:49;25.80;39.90
17659;DHT22;8948;51.534;8.262;2023-06-26T15:46:50;25.60;40.40
17659;DHT22;8948;51.534;8.262;2023-06-26T15:51:50;25.50;40.70
17659;DHT22;8948;51.534;8.262;2023-06-26T15:56:51;25.50;40.90
17659;DHT22;8948;51.534;8.262;2023-06-26T16:01:51;25.50;41.50
17659;DHT22;8948;51.534;8.262;2023-06-26T16:06:52;25.80;40.80
17659;DHT22;8948;51.534;8.262;2023-06-26T16:11:53;26.00;40.40
17659;DHT22;8948;51.534;8.262;2023-06-26T16:16:53;25.70;39.80
17659;DHT22;8948;51.534;8.262;2023-06-26T16:21:54;25.40;40.70
17659;DHT22;8948;51.534;8.262;2023-06-26T16:26:54;25.30;41.00
17659;DHT22;8948;51.534;8.262;2023-06-26T16:31:55;25.20;40.90
17659;DHT22;8948;51.534;8.262;2023-06-26T16:36:55;24.90;41.50
17659;DHT22;8948;51.534;8.262;2023-06-26T16:41:56;24.80;41.40
17659;DHT22;8948;51.534;8.262;2023-06-26T16:46:57;24.50;41.10
17659;DHT22;8948;51.534;8.262;2023-06-26T16:51:58;24.50;41.70
17659;DHT22;8948;51.534;8.262;2023-06-26T16:56:59;24.50;41.60
17659;DHT22;8948;51.534;8.262;2023-06-26T17:01:59;24.50;42.50
17659;DHT22;8948;51.534;8.262;2023-06-26T17:07:02;24.50;41.60
17659;DHT22;8948;51.534;8.262;2023-06-26T17:12:03;24.30;41.60
17659;DHT22;8948;51.534;8.262;2023-06-26T17:17:04;24.20;42.70
17659;DHT22;8948;51.534;8.262;2023-06-26T17:22:05;23.90;42.10
17659;DHT22;8948;51.534;8.262;2023-06-26T17:32:10;23.70;44.40
17659;DHT22;8948;51.534;8.262;2023-06-26T17:37:11;23.60;43.70
17659;DHT22;8948;51.534;8.262;2023-06-26T17:42:12;23.40;43.90
17659;DHT22;8948;51.534;8.262;2023-06-26T17:47:12;23.40;44.30
17659;DHT22;8948;51.534;8.262;2023-06-26T17:52:13;23.30;44.40
17659;DHT22;8948;51.534;8.262;2023-06-26T17:57:14;23.10;44.40
17659;DHT22;8948;51.534;8.262;2023-06-26T18:02:15;23.00;44.60
17659;DHT22;8948;51.534;8.262;2023-06-26T18:07:16;23.10;44.70
17659;DHT22;8948;51.534;8.262;2023-06-26T18:12:17;23.00;45.00
17659;DHT22;8948;51.534;8.262;2023-06-26T18:17:17;22.90;44.40
17659;DHT22;8948;51.534;8.262;2023-06-26T18:22:18;22.80;44.30
17659;DHT22;8948;51.534;8.262;2023-06-26T18:27:18;22.70;44.10
17659;DHT22;8948;51.534;8.262;2023-06-26T18:32:19;22.60;44.50
17659;DHT22;8948;51.534;8.262;2023-06-26T18:37:19;22.70;45.00
17659;DHT22;8948;51.534;8.262;2023-06-26T18:42:20;22.80;44.50
17659;DHT22;8948;51.534;8.262;2023-06-26T18:47:21;22.90;45.30
17659;DHT22;8948;51.534;8.262;2023-06-26T18:52:21;22.90;45.30
17659;DHT22;8948;51.534;8.262;2023-06-26T18:57:22;22.90;45.80
17659;DHT22;8948;51.534;8.262;2023-06-26T19:02:22;22.80;45.90
17659;DHT22;8948;51.534;8.262;2023-06-26T19:07:23;22.80;46.50
17659;DHT22;8948;51.534;8.262;2023-06-26T19:12:24;22.80;46.50
17659;DHT22;8948;51.534;8.262;2023-06-26T19:17:24;22.80;46.90
17659;DHT22;8948;51.534;8.262;2023-06-26T19:22:26;22.60;47.50
17659;DHT22;8948;51.534;8.262;2023-06-26T19:27:31;22.50;47.70
17659;DHT22;8948;51.534;8.262;2023-06-26T19:32:32;22.40;46.80
17659;DHT22;8948;51.534;8.262;2023-06-26T19:37:32;22.20;47.30
17659;DHT22;8948;51.534;8.262;2023-06-26T19:42:33;22.10;47.20
17659;DHT22;8948;51.534;8.262;2023-06-26T19:47:34;21.80;47.10
17659;DHT22;8948;51.534;8.262;2023-06-26T19:52:35;21.70;47.80
17659;DHT22;8948;51.534;8.262;2023-06-26T19:57:36;21.60;47.90
17659;DHT22;8948;51.534;8.262;2023-06-26T20:02:37;21.50;47.50
17659;DHT22;8948;51.534;8.262;2023-06-26T20:07:38;21.30;48.20
17659;DHT22;8948;51.534;8.262;2023-06-26T20:12:39;21.10;48.70
17659;DHT22;8948;51.534;8.262;2023-06-26T20:17:39;21.00;48.70
17659;DHT22;8948;51.534;8.262;2023-06-26T20:22:40;20.90;48.90
17659;DHT22;8948;51.534;8.262;2023-06-26T20:27:40;20.90;49.20
17659;DHT22;8948;51.534;8.262;2023-06-26T20:32:41;20.70;49.60
17659;DHT22;8948;51.534;8.262;2023-06-26T20:37:42;20.50;50.50
17659;DHT22;8948;51.534;8.262;2023-06-26T20:42:42;20.50;50.60
17659;DHT22;8948;51.534;8.262;2023-06-26T20:47:44;20.40;51.20
17659;DHT22;8948;51.534;8.262;2023-06-26T20:52:45;20.40;50.90
17659;DHT22;8948;51.534;8.262;2023-06-26T20:57:46;20.30;51.30
17659;DHT22;8948;51.534;8.262;2023-06-26T21:02:47;20.30;51.50
17659;DHT22;8948;51.534;8.262;2023-06-26T21:07:47;20.30;51.60
17659;DHT22;8948;51.534;8.262;2023-06-26T21:12:48;20.20;51.30
17659;DHT22;8948;51.534;8.262;2023-06-26T21:17:48;20.20;51.80
17659;DHT22;8948;51.534;8.262;2023-06-26T21:22:49;20.00;52.20
17659;DHT22;8948;51.534;8.262;2023-06-26T21:27:50;19.80;52.20
17659;DHT22;8948;51.534;8.262;2023-06-26T21:32:50;19.70;52.00
17659;DHT22;8948;51.534;8.262;2023-06-26T21:37:51;19.60;52.70
17659;DHT22;8948;51.534;8.262;2023-06-26T21:42:51;19.50;52.90
17659;DHT22;8948;51.534;8.262;2023-06-26T21:47:52;19.40;52.60
17659;DHT22;8948;51.534;8.262;2023-06-26T21:52:52;19.40;52.70
17659;DHT22;8948;51.534;8.262;2023-06-26T21:57:53;19.30;53.50
17659;DHT22;8948;51.534;8.262;2023-06-26T22:02:54;19.10;53.40
17659;DHT22;8948;51.534;8.262;2023-06-26T22:07:54;19.10;53.50
17659;DHT22;8948;51.534;8.262;2023-06-26T22:12:55;19.10;53.80
17659;DHT22;8948;51.534;8.262;2023-06-26T22:17:56;19.10;54.10
17659;DHT22;8948;51.534;8.262;2023-06-26T22:22:57;19.00;53.70
17659;DHT22;8948;51.534;8.262;2023-06-26T22:27:57;18.90;53.90
17659;DHT22;8948;51.534;8.262;2023-06-26T22:32:58;18.90;54.40
17659;DHT22;8948;51.534;8.262;2023-06-26T22:37:58;18.80;54.10
17659;DHT22;8948;51.534;8.262;2023-06-26T22:42:59;18.70;54.10
17659;DHT22;8948;51.534;8.262;2023-06-26T22:48:00;18.50;54.50
17659;DHT22;8948;51.534;8.262;2023-06-26T22:53:00;18.60;54.80
17659;DHT22;8948;51.534;8.262;2023-06-26T22:58:01;18.50;53.90
17659;DHT22;8948;51.534;8.262;2023-06-26T23:03:01;18.40;54.60
17659;DHT22;8948;51.534;8.262;2023-06-26T23:08:02;18.40;54.40
17659;DHT22;8948;51.534;8.262;2023-06-26T23:13:03;18.30;54.90
17659;DHT22;8948;51.534;8.262;2023-06-26T23:18:04;18.20;54.90
17659;DHT22;8948;51.534;8.262;2023-06-26T23:23:05;18.20;55.10
17659;DHT22;8948;51.534;8.262;2023-06-26T23:28:05;18.10;55.60
17659;DHT22;8948;51.534;8.262;2023-06-26T23:33:06;18.00;55.70
17659;DHT22;8948;51.534;8.262;2023-06-26T23:38:07;17.80;56.00
17659;DHT22;8948;51.534;8.262;2023-06-26T23:43:08;17.70;56.20
17659;DHT22;8948;51.534;8.262;2023-06-26T23:48:08;17.60;56.20
17659;DHT22;8948;51.534;8.262;2023-06-26T23:53:09;17.70;56.10
17659;DHT22;8948;51.534;8.262;2023-06-26T23:58:10;17.40;56.70
